createdAt,value
2022-09-09T00:02:21.060Z,40.86
2022-09-09T00:05:31.668Z,41.38
2022-09-09T00:08:06.481Z,41.44
2022-09-09T00:10:44.616Z,41.08
2022-09-09T00:13:34.357Z,41.07
2022-09-09T00:16:16.542Z,41.20
2022-09-09T00:19:06.651Z,41.17
2022-09-09T00:21:43.124Z,40.91
2022-09-09T00:24:26.551Z,41.24
2022-09-09T00:27:01.614Z,41.12
2022-09-09T00:29:45.369Z,40.81
2022-09-09T00:32:18.428Z,40.60
2022-09-09T00:35:06.328Z,41.02
2022-09-09T00:37:43.243Z,40.95
2022-09-09T00:40:35.651Z,41.27
2022-09-09T00:43:22.055Z,41.29
2022-09-09T00:46:10.531Z,40.96
2022-09-09T00:49:06.311Z,41.39
2022-09-09T00:52:10.710Z,41.26
2022-09-09T00:55:05.738Z,40.92
2022-09-09T00:57:39.567Z,41.21
2022-09-09T01:00:27.845Z,41.70
2022-09-09T01:03:25.043Z,41.59
2022-09-09T01:06:22.242Z,41.36
2022-09-09T01:09:11.777Z,41.40
2022-09-09T01:11:48.424Z,41.52
2022-09-09T01:14:37.480Z,41.45
2022-09-09T01:17:28.245Z,41.26
2022-09-09T01:20:33.858Z,41.47
2022-09-09T01:23:35.740Z,41.19
2022-09-09T01:26:29.593Z,41.33
2022-09-09T01:29:09.340Z,41.49
2022-09-09T01:31:53.503Z,41.37
2022-09-09T01:34:30.496Z,41.46
2022-09-09T01:37:15.174Z,41.06
2022-09-09T01:39:46.614Z,41.45
2022-09-09T01:42:19.989Z,41.48
2022-09-09T01:44:51.004Z,41.09
2022-09-09T01:47:30.254Z,41.03
2022-09-09T01:50:19.370Z,40.99
2022-09-09T01:52:50.946Z,40.85
2022-09-09T01:55:42.838Z,41.32
2022-09-09T01:58:31.375Z,41.40
2022-09-09T02:01:09.862Z,41.44
2022-09-09T02:03:37.749Z,41.42
2022-09-09T02:06:27.589Z,41.25
2022-09-09T02:09:07.665Z,41.69
2022-09-09T02:11:43.855Z,41.74
2022-09-09T02:14:31.612Z,41.41
2022-09-09T02:17:36.648Z,41.42
2022-09-09T02:20:17.695Z,41.66
2022-09-09T02:22:57.294Z,41.28
2022-09-09T02:25:31.151Z,41.58
2022-09-09T02:28:22.306Z,41.30
2022-09-09T02:30:56.195Z,41.46
2022-09-09T02:33:43.191Z,41.54
2022-09-09T02:36:17.264Z,41.76
2022-09-09T02:38:54.122Z,41.61
2022-09-09T02:41:33.386Z,41.78
2022-09-09T02:44:10.778Z,41.69
2022-09-09T02:46:47.707Z,41.60
2022-09-09T02:50:00.774Z,41.57
2022-09-09T02:53:04.067Z,41.75
2022-09-09T02:55:50.820Z,41.25
2022-09-09T02:58:27.646Z,41.73
2022-09-09T03:01:05.866Z,41.24
2022-09-09T03:03:35.895Z,41.75
2022-09-09T03:06:14.046Z,41.67
2022-09-09T03:08:49.462Z,41.45
2022-09-09T03:11:26.799Z,41.98
2022-09-09T03:14:03.907Z,41.56
2022-09-09T03:16:36.215Z,41.64
2022-09-09T03:19:08.024Z,41.61
2022-09-09T03:21:36.415Z,42.01
2022-09-09T03:24:07.796Z,41.90
2022-09-09T03:26:42.233Z,41.64
2022-09-09T03:29:16.653Z,41.94
2022-09-09T03:31:51.892Z,41.67
2022-09-09T03:34:25.396Z,41.23
2022-09-09T03:36:57.876Z,41.31
2022-09-09T03:39:30.723Z,41.56
2022-09-09T03:42:06.679Z,41.29
2022-09-09T03:44:39.065Z,41.68
2022-09-09T03:47:10.343Z,41.46
2022-09-09T03:49:44.638Z,41.49
2022-09-09T03:52:26.118Z,41.57
2022-09-09T03:54:55.285Z,41.14
2022-09-09T03:57:26.127Z,41.55
2022-09-09T03:59:56.799Z,41.12
2022-09-09T04:02:36.716Z,41.42
2022-09-09T04:05:07.355Z,41.23
2022-09-09T04:07:37.835Z,41.37
2022-09-09T04:10:11.583Z,41.60
2022-09-09T04:12:48.974Z,41.41
2022-09-09T04:15:20.173Z,41.13
2022-09-09T04:17:55.452Z,41.63
2022-09-09T04:20:31.330Z,41.37
2022-09-09T04:23:07.367Z,41.22
2022-09-09T04:25:41.228Z,41.06
2022-09-09T04:28:13.832Z,41.38
2022-09-09T04:30:44.931Z,41.31
2022-09-09T04:33:15.691Z,41.51
2022-09-09T04:35:51.397Z,41.35
2022-09-09T04:38:27.541Z,41.69
2022-09-09T04:40:58.200Z,41.60
2022-09-09T04:43:28.023Z,41.56
2022-09-09T04:46:04.808Z,41.57
2022-09-09T04:48:33.135Z,41.53
2022-09-09T04:51:10.948Z,41.48
2022-09-09T04:53:44.072Z,41.65
2022-09-09T04:56:17.759Z,41.63
2022-09-09T04:58:58.472Z,41.59
2022-09-09T05:01:43.472Z,41.54
2022-09-09T05:04:17.193Z,41.87
2022-09-09T05:06:52.449Z,41.81
2022-09-09T05:09:28.491Z,41.81
2022-09-09T05:11:59.421Z,41.82
2022-09-09T05:14:33.589Z,41.81
2022-09-09T05:17:05.958Z,41.40
2022-09-09T05:19:37.983Z,41.59
2022-09-09T05:22:12.910Z,41.86
2022-09-09T05:24:51.426Z,41.90
2022-09-09T05:27:22.082Z,41.80
2022-09-09T05:29:57.981Z,41.65
2022-09-09T05:32:42.144Z,41.62
2022-09-09T05:35:14.633Z,41.73
2022-09-09T05:37:52.201Z,41.49
2022-09-09T05:40:33.585Z,41.40
2022-09-09T05:43:09.703Z,41.22
2022-09-09T05:45:48.626Z,41.23
2022-09-09T05:48:31.382Z,41.17
2022-09-09T05:51:09.835Z,41.04
2022-09-09T05:53:48.669Z,41.54
2022-09-09T05:56:26.247Z,41.25
2022-09-09T05:59:04.145Z,41.17
2022-09-09T06:01:37.500Z,41.20
2022-09-09T06:04:13.330Z,40.81
2022-09-09T06:06:50.557Z,41.17
2022-09-09T06:09:22.563Z,41.20
2022-09-09T06:11:56.630Z,41.13
2022-09-09T06:14:30.481Z,41.59
2022-09-09T06:17:04.201Z,41.86
2022-09-09T06:19:35.081Z,41.94
2022-09-09T06:22:13.924Z,42.99
2022-09-09T06:24:46.251Z,41.84
2022-09-09T06:27:22.113Z,42.15
2022-09-09T06:29:52.460Z,42.51
2022-09-09T06:32:23.740Z,41.89
2022-09-09T06:34:54.280Z,42.73
2022-09-09T06:37:28.072Z,41.77
2022-09-09T06:39:56.719Z,42.40
2022-09-09T06:42:25.061Z,42.81
2022-09-09T06:45:24.029Z,43.70
2022-09-09T06:48:00.130Z,42.99
2022-09-09T06:50:30.294Z,43.89
2022-09-09T06:53:01.146Z,43.68
2022-09-09T06:55:31.289Z,42.57
2022-09-09T06:58:03.821Z,42.23
2022-09-09T07:00:34.393Z,41.97
2022-09-09T07:03:07.404Z,42.04
2022-09-09T07:05:38.334Z,42.08
2022-09-09T07:08:11.002Z,41.87
2022-09-09T07:10:41.495Z,41.55
2022-09-09T07:13:11.842Z,41.45
2022-09-09T07:15:46.294Z,41.23
2022-09-09T07:18:24.797Z,41.46
2022-09-09T07:21:00.725Z,41.26
2022-09-09T07:23:28.508Z,41.00
2022-09-09T07:26:02.747Z,41.77
2022-09-09T07:28:41.130Z,41.43
2022-09-09T07:31:18.264Z,41.69
2022-09-09T07:33:52.492Z,41.45
2022-09-09T07:36:23.054Z,41.33
2022-09-09T07:38:56.343Z,41.77
2022-09-09T07:42:06.433Z,41.84
2022-09-09T07:44:38.244Z,40.81
2022-09-09T07:47:17.735Z,40.52
2022-09-09T07:49:51.270Z,40.24
2022-09-09T07:52:35.244Z,40.62
2022-09-09T07:55:14.447Z,40.63
2022-09-09T07:57:48.546Z,40.91
2022-09-09T08:00:20.651Z,41.35
2022-09-09T08:02:56.832Z,41.75
2022-09-09T08:05:27.493Z,40.98
2022-09-09T08:08:01.529Z,41.23
2022-09-09T08:10:29.434Z,40.80
2022-09-09T08:13:17.468Z,41.05
2022-09-09T08:15:52.255Z,41.32
2022-09-09T08:18:24.386Z,41.43
2022-09-09T08:20:58.356Z,41.92
2022-09-09T08:23:34.350Z,42.23
2022-09-09T08:26:14.702Z,41.94
2022-09-09T08:28:57.349Z,41.75
2022-09-09T08:31:32.013Z,42.54
2022-09-09T08:34:02.627Z,42.76
2022-09-09T08:36:37.545Z,42.83
2022-09-09T08:39:11.593Z,42.21
2022-09-09T08:42:03.562Z,42.45
2022-09-09T08:44:38.048Z,42.17
2022-09-09T08:47:07.590Z,42.47
2022-09-09T08:50:02.387Z,42.26
2022-09-09T08:52:43.953Z,42.88
2022-09-09T08:56:00.398Z,42.70
2022-09-09T08:58:54.419Z,42.82
2022-09-09T09:02:07.423Z,42.99
2022-09-09T09:04:57.378Z,43.55
2022-09-09T09:07:49.392Z,43.49
2022-09-09T09:10:45.984Z,43.93
2022-09-09T09:13:44.515Z,44.21
2022-09-09T09:16:36.338Z,44.19
2022-09-09T09:19:19.244Z,43.76
2022-09-09T09:22:00.831Z,44.34
2022-09-09T09:25:32.707Z,44.25
2022-09-09T09:28:25.464Z,44.09
2022-09-09T09:31:08.788Z,43.83
2022-09-09T09:33:54.486Z,43.79
2022-09-09T09:36:37.065Z,43.83
2022-09-09T09:42:24.961Z,43.78
2022-09-09T09:45:09.503Z,43.76
2022-09-09T09:47:42.918Z,43.76
2022-09-09T09:50:26.314Z,43.52
2022-09-09T09:53:09.435Z,44.74
2022-09-09T09:55:57.190Z,46.52
2022-09-09T09:58:52.065Z,44.45
2022-09-09T10:01:37.318Z,43.86
2022-09-09T10:04:25.153Z,42.77
2022-09-09T10:16:00.218Z,41.90
2022-09-09T10:18:45.715Z,40.87
2022-09-09T10:21:32.925Z,40.54
2022-09-09T10:24:27.469Z,39.98
2022-09-09T10:27:26.091Z,39.63
2022-09-09T10:30:09.841Z,40.01
2022-09-09T10:32:44.995Z,41.21
2022-09-09T10:35:40.297Z,40.96
2022-09-09T10:38:16.705Z,41.91
2022-09-09T10:41:29.291Z,41.33
2022-09-09T10:44:11.127Z,41.53
2022-09-09T10:47:16.471Z,41.93
2022-09-09T10:50:13.839Z,41.93
2022-09-09T10:53:18.842Z,42.17
2022-09-09T10:56:13.346Z,42.97
2022-09-09T10:58:56.520Z,42.80
2022-09-09T11:01:43.042Z,43.14
2022-09-09T11:04:35.035Z,43.05
2022-09-09T11:07:20.434Z,43.28
2022-09-09T11:10:08.461Z,43.56
2022-09-09T11:12:43.223Z,43.91
2022-09-09T11:15:25.332Z,43.58
2022-09-09T11:18:07.827Z,44.11
2022-09-09T11:20:44.112Z,44.17
2022-09-09T11:23:54.610Z,43.85
2022-09-09T11:26:50.746Z,43.80
2022-09-09T11:30:04.188Z,43.55
2022-09-09T11:33:12.497Z,43.68
2022-09-09T11:35:55.955Z,43.39
2022-09-09T11:38:44.315Z,44.00
2022-09-09T11:41:26.230Z,43.86
2022-09-09T11:44:02.157Z,43.95
2022-09-09T11:46:51.640Z,43.77
2022-09-09T11:49:44.204Z,43.57
2022-09-09T11:52:40.217Z,43.62
2022-09-09T11:55:47.301Z,43.86
2022-09-09T11:58:27.914Z,43.28
2022-09-09T12:01:04.807Z,43.70
2022-09-09T12:03:40.650Z,43.51
2022-09-09T12:06:37.670Z,43.77
2022-09-09T12:09:57.842Z,43.26
2022-09-09T12:12:46.221Z,43.59
2022-09-09T12:15:16.315Z,43.57
2022-09-09T12:17:54.755Z,43.67
2022-09-09T12:20:58.479Z,43.24
2022-09-09T12:23:51.431Z,43.39
2022-09-09T12:26:40.732Z,43.24
2022-09-09T12:29:37.299Z,43.49
2022-09-09T12:32:12.700Z,43.28
2022-09-09T12:34:48.454Z,43.46
2022-09-09T12:37:21.991Z,43.70
2022-09-09T12:39:56.871Z,44.11
2022-09-09T12:42:27.733Z,43.79
2022-09-09T12:45:00.990Z,43.64
2022-09-09T12:47:44.171Z,43.86
2022-09-09T12:50:27.482Z,43.84
2022-09-09T12:53:27.482Z,43.36
2022-09-09T12:56:11.165Z,43.55
2022-09-09T12:58:39.546Z,43.76
2022-09-09T13:01:31.141Z,43.37
2022-09-09T13:04:02.909Z,43.29
2022-09-09T13:06:35.888Z,43.47
2022-09-09T13:09:11.224Z,44.04
2022-09-09T13:11:52.138Z,43.15
2022-09-09T13:14:41.269Z,43.18
2022-09-09T13:17:26.125Z,43.28
2022-09-09T13:19:59.784Z,43.11
2022-09-09T13:22:34.685Z,42.86
2022-09-09T13:25:17.997Z,43.32
2022-09-09T13:28:21.985Z,43.09
2022-09-09T13:31:03.607Z,43.30
2022-09-09T13:33:41.222Z,43.29
2022-09-09T13:36:15.551Z,43.21
2022-09-09T13:39:00.281Z,43.51
2022-09-09T13:41:37.376Z,43.95
2022-09-09T13:44:07.658Z,43.58
2022-09-09T13:46:41.531Z,43.63
2022-09-09T13:49:12.456Z,43.70
2022-09-09T13:51:48.629Z,44.10
2022-09-09T13:54:23.909Z,43.44
2022-09-09T13:56:54.877Z,43.72
2022-09-09T13:59:53.973Z,43.63
2022-09-09T14:02:24.420Z,43.89
2022-09-09T14:04:57.500Z,43.35
2022-09-09T14:07:34.134Z,43.42
2022-09-09T14:10:02.863Z,43.82
2022-09-09T14:12:33.498Z,43.23
2022-09-09T14:15:08.187Z,42.91
2022-09-09T14:17:40.915Z,43.47
2022-09-09T14:20:13.156Z,43.15
2022-09-09T14:22:43.513Z,43.31
2022-09-09T14:25:12.514Z,42.68
2022-09-09T14:27:47.443Z,42.99
2022-09-09T14:30:18.195Z,42.95
2022-09-09T14:32:47.981Z,43.18
2022-09-09T14:35:21.517Z,43.08
2022-09-09T14:37:49.837Z,43.05
2022-09-09T14:40:26.377Z,42.91
2022-09-09T14:43:00.301Z,43.67
2022-09-09T14:45:34.256Z,42.74
2022-09-09T14:48:05.632Z,43.46
2022-09-09T14:50:41.240Z,43.55
2022-09-09T14:53:11.200Z,43.71
2022-09-09T14:55:47.259Z,43.54
2022-09-09T14:58:18.211Z,43.64
2022-09-09T15:00:51.921Z,44.02
2022-09-09T15:03:23.130Z,44.35
2022-09-09T15:05:53.776Z,43.79
2022-09-09T15:08:27.225Z,43.41
2022-09-09T15:11:05.230Z,43.66
2022-09-09T15:13:38.441Z,43.40
2022-09-09T15:16:09.718Z,43.28
2022-09-09T15:18:49.473Z,42.83
2022-09-09T15:21:30.340Z,42.79
2022-09-09T15:24:01.280Z,42.09
2022-09-09T15:26:32.335Z,41.76
2022-09-09T15:29:03.027Z,41.92
2022-09-09T15:31:39.149Z,42.07
2022-09-09T15:34:16.260Z,42.68
2022-09-09T15:36:50.692Z,42.45
2022-09-09T15:39:22.855Z,42.96
2022-09-09T15:41:55.784Z,42.95
2022-09-09T15:44:34.323Z,42.46
2022-09-09T15:47:06.740Z,42.26
2022-09-09T15:49:39.819Z,41.56
2022-09-09T15:52:14.897Z,41.19
2022-09-09T15:54:53.122Z,41.16
